Time;durP1;ratioP1;P1;durP2;ratioP2;P2;SDS_P1;SDS_P2;PMS_P1;PMS_P2;Temp;Humidity;BMP_temperature;BMP_pressure;BME280_temperature;BME280_humidity;BME280_pressure;Samples;Min_cycle;Max_cycle;Signal;HPM_P1;HPM_P2
2022/05/02 00:00:21;;;;;;;14.93;9.53;;;;;;;7.51;99.63;98759.50;5063179;28;20193;-51
2022/05/02 00:02:50;;;;;;;13.97;9.80;;;;;;;7.48;99.60;98751.97;5063471;28;20243;-51
2022/05/02 00:05:17;;;;;;;12.50;8.67;;;;;;;7.55;99.15;98747.09;5052618;28;20220;-51
2022/05/02 00:07:44;;;;;;;12.97;9.33;;;;;;;7.43;98.67;98742.91;5068652;28;20621;-53
2022/05/02 00:10:11;;;;;;;14.90;9.57;;;;;;;7.41;99.02;98750.03;5071307;28;20704;-51
2022/05/02 00:12:38;;;;;;;13.67;9.53;;;;;;;7.45;99.58;98749.63;5071395;28;20203;-51
2022/05/02 00:15:07;;;;;;;13.47;9.23;;;;;;;7.49;99.52;98748.41;5070733;28;20222;-51
2022/05/02 00:17:59;;;;;;;14.70;8.63;;;;;;;7.54;100.00;98743.66;5071966;28;20235;-51
2022/05/02 00:20:29;;;;;;;12.50;9.10;;;;;;;7.52;99.56;98742.97;5071265;28;20187;-51
2022/05/02 00:22:56;;;;;;;11.50;9.03;;;;;;;7.49;99.07;98738.03;5071165;28;20202;-51
2022/05/02 00:25:24;;;;;;;11.60;9.47;;;;;;;7.45;98.85;98734.03;5064434;28;20225;-51
2022/05/02 00:28:13;;;;;;;11.83;8.83;;;;;;;7.43;98.99;98732.53;5062738;28;20289;-51
2022/05/02 00:30:41;;;;;;;12.00;8.70;;;;;;;7.42;98.81;98731.69;5061961;28;20560;-52
2022/05/02 00:33:10;;;;;;;11.50;9.23;;;;;;;7.42;98.14;98730.88;5067797;28;20283;-51
2022/05/02 00:35:37;;;;;;;11.40;8.80;;;;;;;7.42;98.88;98729.09;5070935;28;20238;-50
2022/05/02 00:38:05;;;;;;;13.37;9.47;;;;;;;7.42;98.69;98726.50;5070916;28;20198;-51
2022/05/02 00:40:33;;;;;;;15.83;10.13;;;;;;;7.44;98.53;98728.97;5071427;28;20191;-52
2022/05/02 00:43:00;;;;;;;12.43;9.20;;;;;;;7.46;98.65;98722.69;5070336;28;20245;-52
2022/05/02 00:45:27;;;;;;;10.97;8.77;;;;;;;7.50;98.58;98720.69;5055631;28;20661;-51
2022/05/02 00:47:56;;;;;;;12.40;9.03;;;;;;;7.56;98.45;98716.72;5050013;28;20216;-51
2022/05/02 00:50:33;;;;;;;13.83;8.40;;;;;;;7.52;98.38;98718.78;5051069;28;20709;-51
2022/05/02 00:53:01;;;;;;;13.80;8.90;;;;;;;7.46;98.42;98714.09;5051303;28;20583;-51
2022/05/02 00:55:29;;;;;;;12.03;8.80;;;;;;;7.46;98.22;98714.09;5050661;28;20214;-51
2022/05/02 00:57:58;;;;;;;11.90;8.63;;;;;;;7.43;98.36;98720.34;5053356;28;20194;-51
2022/05/02 01:00:25;;;;;;;12.83;9.17;;;;;;;7.37;98.56;98723.50;5057842;28;20207;-51
2022/05/02 01:02:52;;;;;;;12.27;8.90;;;;;;;7.36;98.53;98719.25;5050924;28;20384;-53
2022/05/02 01:05:19;;;;;;;11.07;8.67;;;;;;;7.31;98.42;98717.03;5050947;28;20628;-51
2022/05/02 01:07:47;;;;;;;12.40;9.53;;;;;;;7.33;98.23;98722.09;5050987;28;20199;-51
2022/05/02 01:10:17;;;;;;;12.47;9.30;;;;;;;7.30;98.07;98709.38;5051315;28;20203;-50
2022/05/02 01:12:44;;;;;;;13.17;8.47;;;;;;;7.28;98.42;98713.88;5053413;28;20209;-50
2022/05/02 01:15:11;;;;;;;10.80;8.70;;;;;;;7.28;99.36;98709.47;5054283;28;20574;-51
2022/05/02 01:17:38;;;;;;;10.80;8.33;;;;;;;7.22;99.06;98712.59;5053950;28;20195;-51
2022/05/02 01:20:08;;;;;;;12.33;9.10;;;;;;;7.17;99.27;98712.97;5056486;28;20218;-51
2022/05/02 01:22:35;;;;;;;14.80;8.40;;;;;;;7.26;99.93;98707.97;5063227;28;20727;-50
2022/05/02 01:25:02;;;;;;;10.57;8.10;;;;;;;7.27;100.00;98707.03;5057850;28;20241;-52
2022/05/02 01:27:29;;;;;;;9.60;8.03;;;;;;;7.26;100.00;98702.78;5067460;28;20182;-51
2022/05/02 01:29:56;;;;;;;12.90;8.50;;;;;;;7.18;100.00;98706.84;5053904;28;20216;-53
2022/05/02 01:32:23;;;;;;;12.23;9.17;;;;;;;7.12;100.00;98702.16;5053024;28;20200;-51
2022/05/02 01:34:50;;;;;;;10.80;8.67;;;;;;;7.07;100.00;98705.13;5054130;28;20226;-50
2022/05/02 01:37:19;;;;;;;11.97;9.03;;;;;;;7.00;100.00;98710.94;5067999;28;20192;-51
2022/05/02 01:39:46;;;;;;;11.30;9.07;;;;;;;7.06;100.00;98700.06;5061864;28;20545;-51
2022/05/02 01:42:13;;;;;;;11.63;8.47;;;;;;;6.99;100.00;98701.53;5065363;28;20204;-51
2022/05/02 01:44:40;;;;;;;12.23;8.67;;;;;;;7.03;100.00;98702.91;5061574;28;20253;-51
2022/05/02 01:47:09;;;;;;;13.33;9.03;;;;;;;6.99;100.00;98704.09;5062318;28;20658;-51
2022/05/02 01:49:36;;;;;;;11.17;8.63;;;;;;;6.92;100.00;98699.41;5067804;28;20274;-50
2022/05/02 01:52:04;;;;;;;11.33;9.23;;;;;;;6.90;100.00;98703.06;5061674;28;20207;-51
2022/05/02 01:54:33;;;;;;;13.90;10.10;;;;;;;6.94;100.00;98694.94;5062804;28;20219;-51
2022/05/02 01:57:00;;;;;;;12.47;9.17;;;;;;;6.92;100.00;98701.19;5054281;28;20215;-51
2022/05/02 01:59:27;;;;;;;10.70;8.67;;;;;;;6.91;100.00;98695.19;5054363;28;20711;-51
2022/05/02 02:01:54;;;;;;;13.30;8.90;;;;;;;6.95;100.00;98693.16;5056763;28;20229;-50
2022/05/02 02:07:06;;;;;;;14.67;9.27;;;;;;;6.85;100.00;98692.28;5062894;28;20188;-51
2022/05/02 02:09:35;;;;;;;11.87;8.80;;;;;;;6.79;100.00;98691.84;5054481;28;20220;-50
2022/05/02 02:12:02;;;;;;;13.30;8.63;;;;;;;6.77;100.00;98695.47;5054374;28;20203;-51
2022/05/02 02:14:29;;;;;;;13.30;9.00;;;;;;;6.84;100.00;98695.81;5059899;28;20214;-50
2022/05/02 02:16:56;;;;;;;12.23;8.87;;;;;;;6.74;100.00;98690.53;5058034;28;20696;-50
2022/05/02 02:19:23;;;;;;;11.53;8.90;;;;;;;6.75;100.00;98697.38;5054982;28;20248;-50
2022/05/02 02:21:49;;;;;;;11.43;8.60;;;;;;;6.65;100.00;98695.53;5064607;28;20199;-53
2022/05/02 02:24:36;;;;;;;12.60;8.73;;;;;;;6.63;100.00;98688.81;5054096;28;20581;-50
2022/05/02 02:27:04;;;;;;;12.07;8.90;;;;;;;6.56;100.00;98685.09;5054379;28;20220;-51
2022/05/02 02:29:31;;;;;;;11.60;8.80;;;;;;;6.58;100.00;98686.59;5054168;28;20787;-53
2022/05/02 02:31:57;;;;;;;14.53;8.67;;;;;;;6.60;100.00;98687.28;5054070;28;20197;-52
2022/05/02 02:34:24;;;;;;;11.63;9.30;;;;;;;6.62;100.00;98687.19;5053558;28;20240;-51
2022/05/02 02:36:51;;;;;;;14.53;9.77;;;;;;;6.53;100.00;98669.75;5054040;28;20192;-51
2022/05/02 02:39:18;;;;;;;11.53;9.20;;;;;;;6.52;100.00;98674.13;5054082;28;20220;-52
2022/05/02 02:41:46;;;;;;;11.97;9.03;;;;;;;6.46;100.00;98677.19;5053888;28;20196;-51
2022/05/02 02:44:13;;;;;;;14.00;8.93;;;;;;;6.47;100.00;98676.25;5053480;28;20210;-52
2022/05/02 02:46:41;;;;;;;11.07;8.67;;;;;;;6.48;100.00;98664.94;5060655;28;20190;-54
2022/05/02 02:49:27;;;;;;;13.30;8.83;;;;;;;6.44;100.00;98664.38;5062299;28;20216;-50
2022/05/02 02:51:54;;;;;;;13.47;9.07;;;;;;;6.43;100.00;98661.88;5052751;28;20214;-51
2022/05/02 02:54:21;;;;;;;13.77;9.63;;;;;;;6.53;100.00;98667.97;5051051;28;20673;-51
2022/05/02 02:56:50;;;;;;;15.03;10.03;;;;;;;6.49;100.00;98667.41;5051283;28;20228;-49
2022/05/02 02:59:16;;;;;;;14.50;10.33;;;;;;;6.49;100.00;98662.22;5057814;28;20190;-50
2022/05/02 03:02:01;;;;;;;16.73;10.07;;;;;;;6.48;100.00;98655.41;5061431;28;20209;-50
2022/05/02 03:07:13;;;;;;;15.23;8.93;;;;;;;6.45;100.00;98647.03;5060012;28;20199;-50
2022/05/02 03:09:40;;;;;;;13.60;9.50;;;;;;;6.43;100.00;98654.94;5053160;28;20212;-50
2022/05/02 03:12:10;;;;;;;11.27;9.03;;;;;;;6.35;100.00;98650.41;5063976;28;20283;-50
2022/05/02 03:14:37;;;;;;;12.57;9.00;;;;;;;6.31;100.00;98649.00;5064509;28;20245;-50
2022/05/02 03:17:05;;;;;;;13.23;9.40;;;;;;;6.28;100.00;98649.25;5064863;28;20218;-50
2022/05/02 03:19:32;;;;;;;11.70;8.93;;;;;;;6.22;100.00;98654.91;5057542;28;20186;-49
2022/05/02 03:21:59;;;;;;;14.27;9.67;;;;;;;6.27;100.00;98662.31;5061383;28;20196;-50
2022/05/02 03:24:26;;;;;;;14.37;9.80;;;;;;;6.24;100.00;98658.19;5052645;28;20267;-50
2022/05/02 03:26:54;;;;;;;14.10;10.27;;;;;;;6.15;100.00;98656.34;5063507;28;20211;-50
2022/05/02 03:29:22;;;;;;;15.20;10.20;;;;;;;6.07;100.00;98659.53;5072304;28;20643;-50
2022/05/02 03:31:50;;;;;;;14.00;10.13;;;;;;;6.04;100.00;98654.56;5056299;28;20304;-50
2022/05/02 03:34:17;;;;;;;14.33;9.83;;;;;;;5.91;100.00;98647.75;5051531;28;20205;-51
2022/05/02 03:36:44;;;;;;;14.10;9.97;;;;;;;5.90;100.00;98650.47;5051566;28;20206;-50
2022/05/02 03:39:12;;;;;;;11.47;8.60;;;;;;;5.95;100.00;98645.75;5052884;28;20196;-50
2022/05/02 03:41:39;;;;;;;15.57;9.70;;;;;;;5.88;100.00;98647.16;5052642;28;20223;-50
2022/05/02 03:44:06;;;;;;;14.17;9.23;;;;;;;5.77;100.00;98648.03;5052358;28;20232;-50
2022/05/02 03:46:35;;;;;;;12.93;9.47;;;;;;;5.68;100.00;98649.53;5052620;28;20200;-50
2022/05/02 03:49:01;;;;;;;12.83;9.87;;;;;;;5.68;100.00;98653.91;5052608;28;20193;-50
2022/05/02 03:51:29;;;;;;;12.83;9.03;;;;;;;5.62;100.00;98657.78;5052695;28;20354;-50
2022/05/02 03:53:56;;;;;;;17.73;11.50;;;;;;;5.59;100.00;98655.44;5052135;28;20290;-50
2022/05/02 03:56:23;;;;;;;26.97;16.80;;;;;;;5.59;100.00;98658.84;5051154;28;20201;-52
2022/05/02 03:58:51;;;;;;;37.10;21.08;;;;;;;5.63;100.00;98662.03;5051929;28;20481;-50
2022/05/02 04:01:19;;;;;;;25.30;15.87;;;;;;;5.59;100.00;98671.81;5052395;28;20567;-50
2022/05/02 04:03:47;;;;;;;17.60;12.47;;;;;;;5.56;100.00;98669.44;5060195;28;20210;-51
2022/05/02 04:06:15;;;;;;;15.77;11.63;;;;;;;5.54;100.00;98665.31;5057328;28;20219;-50
2022/05/02 04:08:42;;;;;;;13.83;10.60;;;;;;;5.54;100.00;98665.31;5055388;28;20561;-51
2022/05/02 04:11:09;;;;;;;14.37;10.53;;;;;;;5.47;100.00;98670.16;5052226;28;20220;-50
2022/05/02 04:13:36;;;;;;;13.20;10.50;;;;;;;5.47;100.00;98664.97;5051898;28;20235;-50
2022/05/02 04:16:03;;;;;;;16.13;10.20;;;;;;;5.59;100.00;98668.38;5052128;28;20605;-49
2022/05/02 04:18:30;;;;;;;17.70;10.33;;;;;;;5.72;100.00;98671.66;5050929;28;20733;-51
2022/05/02 04:20:58;;;;;;;14.83;10.47;;;;;;;5.86;100.00;98667.19;5052047;28;20183;-49
2022/05/02 04:23:25;;;;;;;12.90;9.87;;;;;;;5.82;100.00;98671.78;5051979;28;20191;-50
2022/05/02 04:25:53;;;;;;;14.40;9.90;;;;;;;5.79;100.00;98663.44;5051796;28;20227;-50
2022/05/02 04:28:20;;;;;;;12.53;9.33;;;;;;;5.76;100.00;98660.13;5050613;28;20726;-51
2022/05/02 04:30:47;;;;;;;13.30;9.47;;;;;;;5.82;100.00;98665.78;5051799;28;20224;-50
2022/05/02 04:33:14;;;;;;;11.57;9.30;;;;;;;5.95;100.00;98665.63;5051944;28;20194;-50
2022/05/02 04:35:41;;;;;;;15.17;10.20;;;;;;;5.90;100.00;98666.00;5051767;28;20295;-50
2022/05/02 04:38:10;;;;;;;14.07;10.50;;;;;;;5.96;100.00;98673.31;5055950;28;20232;-50
2022/05/02 04:40:37;;;;;;;12.23;9.90;;;;;;;5.97;100.00;98668.94;5057941;28;20189;-50
2022/05/02 04:43:04;;;;;;;13.03;9.40;;;;;;;6.04;100.00;98667.53;5070614;28;20195;-53
2022/05/02 04:45:32;;;;;;;13.67;9.50;;;;;;;6.08;100.00;98668.94;5062892;28;20212;-50
2022/05/02 04:47:59;;;;;;;13.73;9.47;;;;;;;6.16;100.00;98668.34;5051831;28;20277;-51
2022/05/02 04:50:27;;;;;;;13.87;9.53;;;;;;;6.25;100.00;98667.63;5051099;28;20687;-50
2022/05/02 04:53:14;;;;;;;13.93;9.03;;;;;;;6.35;100.00;98665.94;5064269;28;20203;-52
2022/05/02 04:55:42;;;;;;;16.53;10.23;;;;;;;6.38;100.00;98664.88;5070847;28;20248;-50
2022/05/02 04:58:09;;;;;;;13.77;9.00;;;;;;;6.47;100.00;98664.13;5069768;28;20234;-51
2022/05/02 05:00:36;;;;;;;13.80;9.73;;;;;;;6.57;100.00;98660.78;5071755;28;20278;-50
2022/05/02 05:03:04;;;;;;;14.27;9.50;;;;;;;6.62;100.00;98664.66;5070346;28;20209;-51
2022/05/02 05:05:32;;;;;;;14.47;9.53;;;;;;;6.70;100.00;98663.19;5071509;28;20240;-48
2022/05/02 05:07:59;;;;;;;12.80;9.50;;;;;;;6.79;100.00;98659.84;5071470;28;20644;-50
2022/05/02 05:10:27;;;;;;;13.40;9.73;;;;;;;6.94;100.00;98657.75;5071422;28;20265;-50
2022/05/02 05:13:02;;;;;;;11.87;9.20;;;;;;;6.97;100.00;98662.69;5068390;28;20240;-49
2022/05/02 05:18:35;;;;;;;13.33;9.83;;;;;;;7.16;100.00;98659.41;5066491;28;20203;-52
2022/05/02 05:21:06;;;;;;;17.03;9.40;;;;;;;7.22;100.00;98655.47;5050313;28;20284;-51
2022/05/02 05:23:57;;;;;;;11.57;8.43;;;;;;;7.36;100.00;98654.34;5051399;28;20549;-50
2022/05/02 05:26:39;;;;;;;13.93;8.63;;;;;;;7.43;100.00;98647.63;5066085;28;20191;-50
2022/05/02 05:29:19;;;;;;;12.73;8.60;;;;;;;7.51;100.00;98647.00;5051739;28;20698;-50
2022/05/02 05:31:53;;;;;;;10.67;8.30;;;;;;;7.66;100.00;98648.28;5062478;28;20746;-50
2022/05/02 05:34:33;;;;;;;11.43;8.13;;;;;;;7.79;100.00;98645.44;5068515;28;20333;-51
2022/05/02 05:37:54;;;;;;;10.80;9.20;;;;;;;7.82;100.00;98650.38;5071575;28;20257;-50
2022/05/02 05:40:25;;;;;;;16.33;11.03;;;;;;;7.88;100.00;98650.81;5061757;28;20196;-52
2022/05/02 05:43:04;;;;;;;19.13;13.43;;;;;;;7.89;100.00;98655.06;5063302;28;20279;-50
2022/05/02 05:45:45;;;;;;;15.70;11.93;;;;;;;7.95;99.18;98654.53;5071208;28;20569;-51
2022/05/02 05:48:16;;;;;;;17.30;12.03;;;;;;;8.02;98.44;98654.78;5071532;28;20217;-50
2022/05/02 05:50:50;;;;;;;16.23;11.60;;;;;;;8.03;98.03;98653.84;5070738;28;20213;-53
2022/05/02 05:53:32;;;;;;;15.23;11.13;;;;;;;8.10;97.75;98652.34;5070858;28;20738;-50
2022/05/02 05:56:23;;;;;;;19.83;11.40;;;;;;;8.19;97.72;98655.94;5070751;28;20193;-51
2022/05/02 05:59:05;;;;;;;14.73;11.80;;;;;;;8.23;96.64;98647.72;5073283;28;20431;-52
2022/05/02 06:01:50;;;;;;;15.20;11.68;;;;;;;8.35;96.41;98650.19;5074304;28;20466;-49
2022/05/02 06:04:17;;;;;;;16.80;11.90;;;;;;;8.42;96.01;98656.50;5074557;28;20304;-50
2022/05/02 06:06:47;;;;;;;17.20;12.23;;;;;;;8.50;95.11;98653.22;5074838;28;20239;-49
2022/05/02 06:09:15;;;;;;;15.83;11.80;;;;;;;8.59;94.74;98659.41;5074624;28;20192;-50
2022/05/02 06:11:46;;;;;;;15.13;11.33;;;;;;;8.63;94.03;98660.78;5074643;28;20288;-49
2022/05/02 06:14:16;;;;;;;17.07;12.13;;;;;;;8.71;94.21;98660.91;5074500;28;20559;-49
2022/05/02 06:19:34;;;;;;;13.73;10.60;;;;;;;8.82;93.46;98659.94;5074690;28;20551;-49
2022/05/02 06:22:03;;;;;;;13.80;11.00;;;;;;;8.87;93.58;98657.75;5074329;28;20189;-49
2022/05/02 06:24:33;;;;;;;14.70;10.70;;;;;;;8.91;93.63;98661.72;5072690;28;20623;-49
2022/05/02 06:27:02;;;;;;;13.30;10.57;;;;;;;8.98;93.63;98660.19;5074607;28;20190;-50
2022/05/02 06:29:33;;;;;;;13.50;10.57;;;;;;;9.03;93.16;98659.75;5071597;28;20229;-49
2022/05/02 06:32:02;;;;;;;15.80;11.37;;;;;;;9.05;94.03;98659.63;5073400;28;20223;-49
2022/05/02 06:34:30;;;;;;;14.13;10.90;;;;;;;9.10;94.48;98663.44;5073191;28;20633;-50
2022/05/02 06:37:05;;;;;;;13.20;10.30;;;;;;;9.19;94.32;98661.81;5073858;28;20619;-50
2022/05/02 06:39:46;;;;;;;14.50;10.37;;;;;;;9.34;94.52;98661.34;5073953;28;20513;-50
2022/05/02 06:42:29;;;;;;;13.83;9.80;;;;;;;9.45;93.74;98666.41;5062547;28;20573;-50
2022/05/02 06:45:23;;;;;;;15.30;11.10;;;;;;;9.56;92.26;98662.78;5052498;28;20224;-51
2022/05/02 06:48:30;;;;;;;14.30;10.77;;;;;;;9.67;91.70;98657.38;5054077;28;20189;-50
2022/05/02 06:51:04;;;;;;;22.20;12.70;;;;;;;9.84;90.55;98665.41;4972806;28;20708;-50
2022/05/02 06:54:11;;;;;;;14.80;12.20;;;;;;;10.01;90.28;98655.97;4972832;28;20201;-49
2022/05/02 06:56:43;;;;;;;16.87;11.53;;;;;;;10.22;89.75;98662.72;5034805;28;20267;-49
2022/05/02 06:59:26;;;;;;;16.53;12.07;;;;;;;10.41;89.14;98660.00;5053796;28;20191;-49
2022/05/02 07:01:59;;;;;;;13.57;10.17;;;;;;;10.64;88.75;98659.53;5054046;28;20194;-51
2022/05/02 07:04:41;;;;;;;14.27;10.77;;;;;;;10.80;87.23;98652.78;5052083;28;20219;-50
2022/05/02 07:08:00;;;;;;;16.40;12.80;;;;;;;10.90;84.99;98659.59;5053739;28;20188;-50
2022/05/02 07:10:33;;;;;;;24.60;14.83;;;;;;;10.86;84.51;98665.25;4972567;28;20199;-49
2022/05/02 07:13:17;;;;;;;17.23;13.67;;;;;;;10.86;85.06;98660.84;4972585;28;20240;-50
2022/05/02 07:15:48;;;;;;;19.10;14.30;;;;;;;10.89;84.32;98670.16;5021075;28;20309;-50
2022/05/02 07:18:37;;;;;;;18.77;13.27;;;;;;;10.85;83.28;98661.00;5053530;28;20267;-50
2022/05/02 07:21:19;;;;;;;19.50;13.30;;;;;;;10.82;82.96;98671.75;5052247;28;20640;-49
2022/05/02 07:24:08;;;;;;;19.07;13.97;;;;;;;10.82;83.39;98676.97;5052973;28;20187;-49
2022/05/02 07:26:39;;;;;;;19.40;14.50;;;;;;;10.68;83.83;98675.72;5053326;28;20241;-51
2022/05/02 07:29:06;;;;;;;19.73;14.13;;;;;;;10.72;84.31;98680.47;5053186;28;20614;-50
2022/05/02 07:31:34;;;;;;;21.37;14.03;;;;;;;10.79;82.93;98672.88;5052991;28;20214;-50
2022/05/02 07:34:03;;;;;;;22.07;14.37;;;;;;;10.82;83.05;98674.34;5052829;28;20210;-50
2022/05/02 07:36:35;;;;;;;21.67;14.33;;;;;;;10.81;82.54;98681.38;5053117;28;20197;-53
2022/05/02 07:39:05;;;;;;;20.23;13.97;;;;;;;10.89;82.57;98680.59;5053063;28;20195;-51
2022/05/02 07:41:35;;;;;;;19.03;13.73;;;;;;;10.86;82.34;98675.69;5061618;28;20206;-50
2022/05/02 07:44:04;;;;;;;18.93;14.57;;;;;;;10.92;81.82;98669.88;5066404;28;20210;-49
2022/05/02 07:46:35;;;;;;;19.47;13.67;;;;;;;10.95;81.98;98674.78;5064676;28;20186;-49
2022/05/02 07:49:05;;;;;;;21.50;13.73;;;;;;;10.99;82.33;98667.47;5064496;28;20235;-50
2022/05/02 07:51:34;;;;;;;19.10;14.17;;;;;;;11.09;82.45;98670.81;5070710;28;20242;-49
2022/05/02 07:54:02;;;;;;;19.30;13.43;;;;;;;11.14;83.11;98665.94;5071700;28;20269;-49
2022/05/02 07:56:32;;;;;;;21.07;13.90;;;;;;;11.13;82.22;98673.94;5072178;28;20206;-50
2022/05/02 07:59:01;;;;;;;22.30;15.40;;;;;;;11.25;83.52;98677.09;5070772;28;20864;-53
2022/05/02 08:01:28;;;;;;;21.90;14.10;;;;;;;11.25;82.51;98672.72;5063234;28;20183;-49
2022/05/02 08:03:56;;;;;;;20.27;13.73;;;;;;;11.25;82.60;98675.31;5067672;28;20219;-50
2022/05/02 08:06:46;;;;;;;16.93;13.30;;;;;;;11.39;82.81;98686.19;5063476;28;20194;-50
2022/05/02 08:09:34;;;;;;;18.73;13.83;;;;;;;11.44;83.92;98684.72;5052482;28;20184;-49
2022/05/02 08:12:10;;;;;;;17.03;13.33;;;;;;;11.77;82.99;98681.44;5052348;28;20208;-51
2022/05/02 08:14:48;;;;;;;19.40;13.30;;;;;;;11.93;82.41;98684.13;5052169;28;20250;-50
2022/05/02 08:17:28;;;;;;;16.77;12.40;;;;;;;12.19;81.57;98675.41;5052388;28;20250;-50
2022/05/02 08:20:02;;;;;;;16.03;12.63;;;;;;;12.43;82.46;98680.84;5052056;28;20265;-50
2022/05/02 08:28:32;;;;;;;18.20;13.47;;;;;;;12.67;81.35;98685.31;5052162;28;20235;-50
2022/05/02 08:31:12;;;;;;;21.00;14.27;;;;;;;12.75;79.99;98679.25;5052490;28;20556;-49
2022/05/02 08:33:47;;;;;;;19.00;13.23;;;;;;;12.91;77.31;98686.28;5050459;28;20198;-49
2022/05/02 08:36:31;;;;;;;21.47;15.27;;;;;;;13.27;76.76;98689.34;5052178;28;20200;-50
2022/05/02 08:39:03;;;;;;;20.77;14.73;;;;;;;13.47;75.64;98683.75;5052383;28;20187;-49
2022/05/02 08:41:58;;;;;;;21.43;16.13;;;;;;;13.86;73.77;98677.72;5065938;28;20195;-50
2022/05/02 08:44:55;;;;;;;20.60;15.87;;;;;;;14.25;72.49;98681.31;5057946;28;20222;-50
2022/05/02 08:47:54;;;;;;;22.60;15.90;;;;;;;14.68;71.02;98680.06;5063841;28;20223;-50
2022/05/02 08:50:58;;;;;;;21.07;16.87;;;;;;;14.55;70.78;98681.44;5060416;28;20195;-50
2022/05/02 08:53:47;;;;;;;27.00;18.13;;;;;;;14.52;70.96;98681.81;5058402;28;20234;-50
2022/05/02 08:56:53;;;;;;;24.07;17.93;;;;;;;14.94;70.52;98684.13;5059073;28;20199;-50
2022/05/02 08:59:49;;;;;;;23.47;17.23;;;;;;;15.32;68.23;98684.09;5064176;28;20185;-50
2022/05/02 09:03:01;;;;;;;22.40;16.40;;;;;;;15.47;66.56;98694.63;5065114;28;20532;-50
2022/05/02 09:06:02;;;;;;;24.53;17.77;;;;;;;15.55;67.10;98683.22;5020654;28;20300;-53
2022/05/02 09:09:04;;;;;;;22.53;17.23;;;;;;;15.28;68.84;98678.41;5062341;28;20204;-51
2022/05/02 09:12:00;;;;;;;21.40;16.43;;;;;;;15.69;67.61;98682.38;5062259;28;20205;-49
2022/05/02 09:15:17;;;;;;;24.07;17.50;;;;;;;15.67;67.48;98681.75;5050651;28;20570;-51
2022/05/02 09:18:12;;;;;;;20.90;16.13;;;;;;;15.65;67.20;98676.66;4981392;28;20209;-50
2022/05/02 09:20:57;;;;;;;21.27;17.23;;;;;;;15.75;67.88;98676.41;5063941;28;20203;-50
2022/05/02 09:24:01;;;;;;;22.97;16.60;;;;;;;15.69;67.60;98676.28;5065536;28;20194;-50
2022/05/02 09:27:05;;;;;;;22.77;17.27;;;;;;;16.14;66.93;98677.06;5049772;28;20553;-50
2022/05/02 09:30:19;;;;;;;18.97;16.00;;;;;;;16.19;66.60;98673.88;5066666;28;20208;-51
2022/05/02 09:33:05;;;;;;;22.73;16.40;;;;;;;16.03;66.18;98670.47;5071775;28;20220;-52
2022/05/02 09:35:34;;;;;;;24.13;17.07;;;;;;;15.98;65.85;98667.56;5074663;28;20268;-51
2022/05/02 09:38:22;;;;;;;23.23;16.43;;;;;;;15.34;67.47;98666.31;5073600;28;20203;-50
2022/05/02 09:40:59;;;;;;;22.30;15.87;;;;;;;15.76;67.15;98664.03;5057268;28;20759;-50
2022/05/02 09:49:50;;;;;;;21.30;15.20;;;;;;;16.34;65.71;98653.56;5055098;28;20531;-53
2022/05/02 09:52:25;;;;;;;20.53;15.47;;;;;;;16.12;65.48;98650.13;5047458;28;20779;-53
2022/05/02 09:58:35;;;;;;;21.25;15.52;;;;;;;16.30;65.75;98648.88;5032258;28;20429;-50
2022/05/02 10:01:17;;;;;;;18.57;14.47;;;;;;;16.45;64.89;98652.25;5057349;28;20226;-51
2022/05/02 10:04:30;;;;;;;19.77;14.70;;;;;;;16.42;64.86;98646.56;5055309;28;20199;-50
2022/05/02 10:07:05;;;;;;;18.63;14.40;;;;;;;16.54;64.11;98647.69;4984883;28;20206;-50
2022/05/02 10:09:49;;;;;;;21.10;14.63;;;;;;;16.81;64.82;98648.72;4992688;28;20252;-51
2022/05/02 10:12:25;;;;;;;17.50;14.27;;;;;;;16.92;62.66;98647.41;5044887;28;20222;-52
2022/05/02 10:15:03;;;;;;;16.63;12.97;;;;;;;17.51;60.12;98655.06;5054550;28;20221;-50
2022/05/02 10:18:00;;;;;;;16.83;12.40;;;;;;;17.20;60.57;98646.56;5067543;28;20246;-52
2022/05/02 10:20:38;;;;;;;13.60;12.17;;;;;;;17.29;60.21;98646.44;5069127;28;20196;-53
2022/05/02 10:23:15;;;;;;;18.53;12.97;;;;;;;17.33;60.42;98643.22;5063076;28;20176;-58
2022/05/02 10:25:44;;;;;;;17.97;13.43;;;;;;;17.34;60.34;98636.09;5057441;28;20224;-53
2022/05/02 10:28:54;;;;;;;19.87;13.53;;;;;;;17.12;61.14;98644.09;5062595;28;20246;-51
2022/05/02 10:31:26;;;;;;;22.70;13.40;;;;;;;17.00;61.68;98635.06;5063213;28;20184;-51
2022/05/02 10:33:55;;;;;;;17.57;14.37;;;;;;;16.95;60.73;98631.19;5071842;28;20257;-50
2022/05/02 10:36:28;;;;;;;16.90;13.43;;;;;;;17.05;62.62;98640.59;5059809;28;20191;-52
2022/05/02 10:39:01;;;;;;;18.50;13.97;;;;;;;17.17;61.50;98636.41;5055458;28;20196;-50
2022/05/02 10:41:37;;;;;;;15.43;12.33;;;;;;;17.37;59.80;98636.56;5068441;28;20241;-50
2022/05/02 10:44:06;;;;;;;17.63;13.87;;;;;;;17.25;59.35;98633.63;5053032;28;20294;-50
2022/05/02 10:46:35;;;;;;;14.50;12.70;;;;;;;17.19;60.61;98628.31;5053739;28;20189;-53
2022/05/02 10:49:04;;;;;;;15.30;12.33;;;;;;;17.10;60.60;98628.47;5052675;28;20270;-50
2022/05/02 10:51:45;;;;;;;17.70;14.20;;;;;;;17.05;60.39;98628.22;5053685;28;20231;-50
2022/05/02 10:54:30;;;;;;;16.70;13.33;;;;;;;17.19;59.96;98620.41;5052927;28;20220;-50
2022/05/02 10:57:00;;;;;;;18.17;14.00;;;;;;;17.21;60.73;98624.47;5071878;28;20252;-51
2022/05/02 10:59:30;;;;;;;18.67;13.33;;;;;;;17.02;60.83;98625.97;5068146;28;20219;-50
2022/05/02 11:02:25;;;;;;;15.87;11.87;;;;;;;17.62;58.62;98617.56;5071772;28;20281;-49
2022/05/02 11:05:09;;;;;;;18.77;13.50;;;;;;;17.03;61.07;98610.97;5061641;28;20251;-49
2022/05/02 11:07:46;;;;;;;16.67;13.40;;;;;;;17.34;59.21;98613.19;5069542;28;20191;-52
2022/05/02 11:10:15;;;;;;;15.03;12.67;;;;;;;17.26;60.16;98613.34;5069148;28;20199;-50
2022/05/02 11:12:45;;;;;;;14.70;12.33;;;;;;;17.30;60.89;98606.69;5061415;28;20211;-50
2022/05/02 11:15:17;;;;;;;13.43;12.03;;;;;;;17.54;60.47;98604.53;5055954;28;20223;-50
2022/05/02 11:17:57;;;;;;;15.47;13.27;;;;;;;17.37;60.20;98598.78;5065037;28;20203;-51
2022/05/02 11:20:42;;;;;;;14.10;11.77;;;;;;;17.65;58.39;98600.53;5061816;28;20200;-51
2022/05/02 11:23:41;;;;;;;15.40;11.87;;;;;;;17.43;60.84;98598.00;5070221;28;20190;-50
2022/05/02 11:26:17;;;;;;;16.17;13.03;;;;;;;17.16;60.27;98595.22;5065129;28;20189;-53
2022/05/02 11:29:06;;;;;;;14.23;12.63;;;;;;;17.19;60.86;98597.47;5062847;28;20743;-52
2022/05/02 11:31:37;;;;;;;14.00;11.80;;;;;;;17.36;59.57;98600.63;5061133;28;20191;-53
2022/05/02 11:34:19;;;;;;;17.93;13.17;;;;;;;17.23;61.19;98597.91;5061068;28;20207;-50
2022/05/02 11:36:52;;;;;;;16.17;13.70;;;;;;;17.24;61.59;98602.97;5061210;28;20194;-50
2022/05/02 11:39:27;;;;;;;18.60;12.80;;;;;;;17.20;62.86;98603.56;5052899;28;20603;-52
2022/05/02 11:41:58;;;;;;;17.63;13.20;;;;;;;17.27;61.60;98599.94;5066290;28;20259;-50
2022/05/02 11:44:32;;;;;;;15.10;12.33;;;;;;;17.44;62.57;98594.34;5065057;28;20214;-50
2022/05/02 11:47:08;;;;;;;17.53;12.73;;;;;;;17.60;61.35;98595.81;5064529;28;20196;-50
2022/05/02 11:49:53;;;;;;;16.50;11.87;;;;;;;17.69;60.48;98593.84;5063980;28;20214;-50
2022/05/02 11:52:30;;;;;;;14.97;11.67;;;;;;;18.01;60.00;98596.81;5059913;28;20219;-50
2022/05/02 11:55:00;;;;;;;12.47;10.93;;;;;;;18.12;59.78;98595.41;5062249;28;20207;-50
2022/05/02 11:57:29;;;;;;;14.13;10.37;;;;;;;18.41;58.46;98598.69;5062064;28;20590;-53
2022/05/02 12:00:05;;;;;;;14.57;11.63;;;;;;;18.42;56.03;98592.41;5063616;28;20226;-50
2022/05/02 12:02:45;;;;;;;17.57;10.93;;;;;;;18.59;56.32;98598.09;5065212;28;20222;-50
2022/05/02 12:05:27;;;;;;;12.83;10.17;;;;;;;18.95;53.69;98591.56;5064598;28;20234;-51
2022/05/02 12:07:56;;;;;;;11.63;10.43;;;;;;;19.16;55.53;98592.31;5072625;28;20644;-50
2022/05/02 12:10:34;;;;;;;15.30;10.47;;;;;;;19.44;56.00;98592.06;5072495;28;20181;-50
2022/05/02 12:13:01;;;;;;;13.00;11.03;;;;;;;19.53;53.70;98584.69;5072178;28;20196;-50
2022/05/02 12:15:29;;;;;;;10.87;9.60;;;;;;;19.64;53.80;98585.03;5071897;28;20266;-50
2022/05/02 12:17:59;;;;;;;12.23;10.43;;;;;;;19.61;52.83;98586.25;5072229;28;20242;-51
2022/05/02 12:20:30;;;;;;;18.07;10.40;;;;;;;19.25;52.14;98577.06;5072353;28;20177;-54
2022/05/02 12:23:02;;;;;;;13.07;10.60;;;;;;;19.64;51.50;98575.25;5071897;28;20280;-50